createdAt,value
2019-03-21T00:00:31.086Z,99.90
2019-03-21T00:02:58.372Z,99.90
2019-03-21T00:05:45.213Z,99.90
2019-03-21T00:08:25.134Z,99.90
2019-03-21T00:11:05.437Z,99.90
2019-03-21T00:13:45.177Z,99.90
2019-03-21T00:16:24.370Z,99.90
2019-03-21T00:19:04.880Z,99.90
2019-03-21T00:21:44.617Z,99.90
2019-03-21T00:24:24.715Z,99.90
2019-03-21T00:27:04.990Z,99.90
2019-03-21T00:29:44.803Z,99.90
2019-03-21T00:32:24.713Z,99.90
2019-03-21T00:35:04.849Z,99.90
2019-03-21T00:37:44.892Z,99.90
2019-03-21T00:40:15.438Z,99.90
2019-03-21T00:43:02.880Z,99.90
2019-03-21T00:45:49.674Z,99.90
2019-03-21T00:48:36.338Z,99.90
2019-03-21T00:51:23.021Z,99.90
2019-03-21T00:54:09.788Z,99.90
2019-03-21T00:56:56.474Z,99.90
2019-03-21T00:59:43.186Z,99.90
2019-03-21T01:02:29.977Z,99.90
2019-03-21T01:04:57.323Z,99.90
2019-03-21T01:07:44.123Z,99.90
2019-03-21T01:10:23.721Z,99.90
2019-03-21T01:13:04.112Z,99.90
2019-03-21T01:15:43.785Z,99.90
2019-03-21T01:18:23.781Z,99.90
2019-03-21T01:21:03.124Z,99.90
2019-03-21T01:23:43.421Z,99.90
2019-03-21T01:26:23.619Z,99.90
2019-03-21T01:29:03.421Z,99.90
2019-03-21T01:31:43.410Z,99.90
2019-03-21T01:34:23.430Z,99.90
2019-03-21T01:37:03.502Z,99.90
2019-03-21T01:39:43.414Z,99.90
2019-03-21T01:42:23.462Z,99.90
2019-03-21T01:45:03.552Z,99.90
2019-03-21T01:47:43.632Z,99.90
2019-03-21T01:50:23.787Z,99.90
2019-03-21T01:52:51.193Z,99.90
2019-03-21T01:55:37.957Z,99.90
2019-03-21T01:58:24.790Z,99.90
2019-03-21T02:01:11.561Z,99.90
2019-03-21T02:03:58.244Z,99.90
2019-03-21T02:06:45.091Z,99.90
2019-03-21T02:09:24.951Z,99.90
2019-03-21T02:12:05.262Z,99.90
2019-03-21T02:14:52.097Z,99.90
2019-03-21T02:17:14.969Z,99.90
2019-03-21T02:20:01.814Z,99.90
2019-03-21T02:22:48.617Z,99.90
2019-03-21T02:25:35.685Z,99.90
2019-03-21T02:28:22.381Z,99.90
2019-03-21T02:31:09.162Z,99.90
2019-03-21T02:33:55.935Z,99.90
2019-03-21T02:36:42.807Z,99.90
2019-03-21T02:39:29.572Z,99.90
2019-03-21T02:42:16.258Z,99.90
2019-03-21T02:45:08.901Z,99.90
2019-03-21T02:47:52.334Z,99.90
2019-03-21T06:00:30.477Z,99.90
2019-03-21T06:02:57.896Z,99.90
2019-03-21T06:05:46.384Z,99.90
2019-03-21T06:08:17.279Z,99.90
2019-03-21T06:10:56.983Z,99.90
2019-03-21T06:13:37.094Z,99.90
2019-03-21T06:16:17.478Z,99.90
2019-03-21T06:18:57.201Z,99.90
2019-03-21T06:21:37.333Z,99.90
2019-03-21T06:24:17.477Z,99.90
2019-03-21T06:26:57.388Z,99.90
2019-03-21T06:29:37.402Z,99.90
2019-03-21T06:32:17.468Z,99.90
2019-03-21T06:34:57.722Z,99.90
2019-03-21T06:37:37.617Z,99.90
2019-03-21T06:40:17.968Z,99.90
2019-03-21T06:42:45.267Z,99.90
2019-03-21T06:45:32.064Z,99.90
2019-03-21T06:48:18.984Z,99.90
2019-03-21T06:51:05.928Z,99.90
2019-03-21T06:53:52.620Z,99.90
2019-03-21T06:56:39.399Z,99.90
2019-03-21T06:59:26.157Z,99.90
2019-03-21T07:01:53.707Z,99.90
2019-03-21T07:04:40.443Z,99.90
2019-03-21T07:07:27.220Z,99.90
2019-03-21T07:10:06.339Z,99.90
2019-03-21T07:12:33.648Z,99.90
2019-03-21T07:15:20.417Z,99.90
2019-03-21T07:18:07.088Z,99.90
2019-03-21T07:20:34.983Z,99.90
2019-03-21T07:23:21.764Z,99.90
2019-03-21T07:26:08.469Z,99.90
2019-03-21T07:28:55.260Z,99.90
2019-03-21T07:31:41.944Z,99.90
2019-03-21T07:34:28.612Z,99.90
2019-03-21T07:37:15.562Z,99.90
2019-03-21T07:42:49.037Z,99.90
2019-03-21T07:45:35.729Z,99.90
2019-03-21T07:48:22.428Z,99.90
2019-03-21T07:51:09.116Z,99.90
2019-03-21T07:53:55.904Z,99.90
2019-03-21T07:56:42.583Z,99.90
2019-03-21T07:59:29.271Z,99.90
2019-03-21T08:02:16.066Z,99.90
2019-03-21T08:05:03.400Z,99.90
2019-03-21T08:07:50.105Z,99.90
2019-03-21T08:10:17.414Z,99.90
2019-03-21T08:13:04.175Z,99.90
2019-03-21T08:18:37.640Z,99.90
2019-03-21T08:21:24.316Z,98.80
2019-03-21T08:24:11.096Z,95.90
2019-03-21T08:26:58.064Z,95.00
2019-03-21T08:29:45.040Z,93.30
2019-03-21T08:32:31.699Z,91.30
2019-03-21T08:35:18.608Z,91.50
2019-03-21T08:38:05.288Z,87.90
2019-03-21T08:40:51.969Z,85.30
2019-03-21T08:43:38.651Z,88.80
2019-03-21T08:46:25.360Z,90.60
2019-03-21T08:49:12.016Z,90.60
2019-03-21T08:51:58.716Z,85.70
2019-03-21T08:54:45.499Z,87.20
2019-03-21T08:57:32.432Z,85.70
2019-03-21T09:00:19.092Z,75.60
2019-03-21T09:03:05.765Z,72.10
2019-03-21T09:05:52.529Z,63.40
2019-03-21T09:08:39.350Z,66.90
2019-03-21T09:11:19.153Z,67.30
2019-03-21T09:13:58.352Z,68.30
2019-03-21T09:16:38.756Z,67.00
2019-03-21T09:19:18.547Z,63.90
2019-03-21T09:21:58.961Z,69.00
2019-03-21T09:24:39.113Z,67.30
2019-03-21T09:27:18.904Z,66.70
2019-03-21T09:29:58.355Z,63.10
2019-03-21T09:32:38.197Z,62.30
2019-03-21T09:35:18.359Z,60.60
2019-03-21T09:37:58.285Z,60.10
2019-03-21T09:40:38.045Z,57.30
2019-03-21T09:43:18.021Z,54.90
2019-03-21T09:51:58.638Z,58.50
2019-03-21T09:54:38.725Z,56.30
2019-03-21T09:57:18.875Z,55.10
2019-03-21T09:59:58.800Z,54.20
2019-03-21T10:02:26.080Z,54.20
2019-03-21T10:05:12.748Z,51.80
2019-03-21T10:07:59.731Z,55.00
2019-03-21T10:10:40.927Z,52.10
2019-03-21T10:13:21.287Z,50.60
2019-03-21T10:16:01.025Z,49.90
2019-03-21T10:21:53.249Z,41.10
2019-03-21T10:24:33.045Z,44.40
2019-03-21T10:27:12.977Z,43.30
2019-03-21T10:29:53.089Z,40.60
2019-03-21T10:32:33.305Z,42.20
2019-03-21T10:35:13.284Z,40.00
2019-03-21T10:37:52.617Z,37.10
2019-03-21T10:40:31.962Z,39.20
2019-03-21T10:43:12.033Z,38.50
2019-03-21T10:45:52.429Z,37.80
2019-03-21T10:48:32.245Z,39.40
2019-03-21T10:51:12.209Z,36.90
2019-03-21T10:53:50.362Z,37.70
2019-03-21T10:56:37.159Z,36.30
2019-03-21T10:59:23.829Z,34.60
2019-03-21T11:02:10.600Z,37.60
2019-03-21T11:04:57.354Z,36.90
2019-03-21T11:07:44.049Z,33.40
2019-03-21T11:10:23.694Z,34.00
2019-03-21T11:13:03.645Z,33.30
2019-03-21T11:15:42.901Z,37.30
2019-03-21T11:18:23.137Z,34.40
2019-03-21T11:20:50.541Z,34.10
2019-03-21T11:23:37.214Z,31.40
2019-03-21T11:26:23.984Z,33.00
2019-03-21T11:28:51.284Z,32.00
2019-03-21T11:31:38.408Z,33.00
2019-03-21T11:34:25.312Z,33.50
2019-03-21T11:37:12.258Z,32.50
2019-03-21T11:39:39.549Z,31.70
2019-03-21T11:42:26.687Z,30.60
2019-03-21T11:45:15.188Z,32.10
2019-03-21T11:48:03.942Z,31.40
2019-03-21T11:50:50.958Z,31.10
2019-03-21T11:53:37.624Z,32.10
2019-03-21T11:56:24.293Z,31.30
2019-03-21T11:59:11.417Z,30.70
2019-03-21T12:01:39.641Z,32.90
2019-03-21T12:04:26.502Z,31.20
2019-03-21T12:07:13.182Z,29.40
2019-03-21T12:09:52.749Z,30.30
2019-03-21T12:12:32.709Z,30.00
2019-03-21T12:15:12.596Z,28.80
2019-03-21T12:17:52.437Z,28.60
2019-03-21T12:20:31.629Z,28.30
2019-03-21T12:26:12.673Z,28.60
2019-03-21T12:28:52.697Z,28.40
2019-03-21T12:31:20.117Z,27.40
2019-03-21T12:34:06.941Z,28.40
2019-03-21T12:36:53.705Z,28.00
2019-03-21T12:39:40.377Z,26.80
2019-03-21T12:42:27.036Z,27.30
2019-03-21T12:45:13.712Z,26.60
2019-03-21T12:48:00.492Z,27.60
2019-03-21T12:50:47.269Z,29.50
2019-03-21T12:53:14.568Z,28.20
2019-03-21T12:56:01.245Z,28.10
2019-03-21T12:58:48.185Z,26.20
2019-03-21T13:01:15.463Z,27.40
2019-03-21T13:04:02.249Z,26.70
2019-03-21T13:06:49.028Z,26.80
2019-03-21T13:09:35.745Z,26.00
2019-03-21T13:12:22.520Z,26.90
2019-03-21T13:14:49.843Z,27.50
2019-03-21T13:17:36.517Z,26.50
2019-03-21T13:20:23.594Z,26.80
2019-03-21T13:22:53.322Z,27.60
2019-03-21T13:25:39.909Z,27.70
2019-03-21T13:28:26.928Z,26.50
2019-03-21T13:31:14.420Z,26.10
2019-03-21T13:33:41.718Z,26.50
2019-03-21T13:36:28.416Z,27.80
2019-03-21T13:39:15.254Z,26.60
2019-03-21T13:42:01.994Z,27.00
2019-03-21T13:44:48.812Z,26.40
2019-03-21T13:47:35.607Z,25.50
2019-03-21T13:50:22.324Z,27.20
2019-03-21T13:53:18.056Z,26.10
2019-03-21T13:55:57.630Z,26.70
2019-03-21T13:58:46.585Z,25.50
2019-03-21T14:01:33.100Z,25.90
2019-03-21T14:04:19.794Z,27.10
2019-03-21T14:07:06.489Z,27.60
2019-03-21T14:09:53.414Z,26.30
2019-03-21T14:12:40.342Z,26.00
2019-03-21T14:15:27.113Z,26.50
2019-03-21T14:18:13.777Z,26.10
2019-03-21T14:21:00.581Z,25.60
2019-03-21T14:23:47.348Z,26.60
2019-03-21T14:26:34.632Z,26.00
2019-03-21T14:29:21.483Z,26.50
2019-03-21T14:35:02.964Z,24.90
2019-03-21T14:37:49.640Z,25.10
2019-03-21T14:40:36.324Z,25.50
2019-03-21T14:43:22.985Z,25.70
2019-03-21T14:46:09.662Z,25.20
2019-03-21T14:48:56.395Z,25.20
2019-03-21T14:51:43.075Z,26.20
2019-03-21T14:54:30.097Z,25.60
2019-03-21T14:57:16.764Z,25.70
2019-03-21T15:00:04.501Z,25.80
2019-03-21T15:02:51.298Z,25.90
2019-03-21T15:05:38.093Z,25.60
2019-03-21T15:08:24.868Z,26.20
2019-03-21T15:11:04.346Z,25.80
2019-03-21T15:13:31.876Z,25.90
2019-03-21T15:16:18.787Z,25.50
2019-03-21T15:19:05.473Z,26.90
2019-03-21T15:21:52.160Z,25.30
2019-03-21T15:24:38.848Z,25.50
2019-03-21T15:27:25.518Z,26.00
2019-03-21T15:30:13.352Z,25.40
2019-03-21T15:33:00.160Z,25.50
2019-03-21T15:35:46.849Z,26.40
2019-03-21T15:38:33.637Z,26.10
2019-03-21T15:41:20.347Z,27.00
2019-03-21T15:44:07.564Z,26.40
2019-03-21T15:46:35.160Z,27.20
2019-03-21T15:49:21.985Z,26.10
2019-03-21T15:52:08.985Z,26.80
2019-03-21T15:54:55.833Z,27.20
2019-03-21T15:57:42.828Z,27.40
2019-03-21T16:00:30.606Z,27.20
2019-03-21T16:03:17.682Z,27.60
2019-03-21T16:06:04.711Z,26.80
2019-03-21T16:08:51.460Z,28.30
2019-03-21T16:11:18.841Z,26.90
2019-03-21T16:14:05.769Z,28.90
2019-03-21T16:16:52.459Z,27.70
2019-03-21T16:19:39.153Z,27.60
2019-03-21T16:22:26.007Z,28.60
2019-03-21T16:25:12.985Z,28.50
2019-03-21T16:27:59.794Z,28.90
2019-03-21T16:30:46.572Z,28.00
2019-03-21T16:33:33.263Z,29.40
2019-03-21T16:36:19.931Z,29.90
2019-03-21T16:39:06.713Z,30.50
2019-03-21T16:41:53.785Z,31.70
2019-03-21T16:44:40.552Z,32.70
2019-03-21T16:47:27.598Z,33.90
2019-03-21T16:50:14.300Z,33.90
2019-03-21T16:53:00.991Z,33.90
2019-03-21T16:55:48.165Z,35.10
2019-03-21T16:58:34.873Z,36.80
2019-03-21T17:01:21.588Z,36.00
2019-03-21T17:06:35.640Z,39.60
2019-03-21T17:09:22.658Z,38.00
2019-03-21T17:11:50.133Z,40.40
2019-03-21T17:14:36.885Z,44.80
2019-03-21T17:17:23.923Z,44.50
2019-03-21T17:20:10.916Z,41.80
2019-03-21T17:22:57.757Z,41.60
2019-03-21T17:25:44.855Z,43.00
2019-03-21T17:28:31.569Z,43.90
2019-03-21T17:31:18.385Z,44.20
2019-03-21T17:34:05.322Z,45.40
2019-03-21T17:36:52.354Z,46.30
2019-03-21T17:39:39.336Z,46.20
2019-03-21T17:42:26.114Z,46.00
2019-03-21T17:45:13.218Z,48.60
2019-03-21T17:48:00.010Z,49.10
2019-03-21T17:50:46.681Z,49.70
2019-03-21T17:53:33.448Z,51.70
2019-03-21T17:59:15.465Z,53.00
2019-03-21T18:02:02.267Z,54.60
2019-03-21T18:04:49.222Z,55.00
2019-03-21T18:07:35.997Z,55.70
2019-03-21T18:10:23.803Z,58.40
2019-03-21T18:13:03.693Z,59.00
2019-03-21T18:15:43.906Z,62.00
2019-03-21T18:18:24.129Z,65.30
2019-03-21T18:21:04.368Z,68.90
2019-03-21T18:23:46.145Z,70.90
2019-03-21T18:26:13.928Z,77.80
2019-03-21T18:29:00.750Z,80.90
2019-03-21T18:31:47.517Z,83.50
2019-03-21T18:34:34.226Z,87.20
2019-03-21T18:37:20.906Z,93.40
2019-03-21T18:40:07.829Z,93.60
2019-03-21T18:42:54.605Z,97.30
2019-03-21T18:45:41.288Z,99.90
2019-03-21T18:48:28.170Z,99.90
2019-03-21T18:51:14.866Z,99.90
2019-03-21T18:54:02.553Z,99.90
2019-03-21T18:56:29.986Z,99.90
2019-03-21T19:02:03.657Z,99.90
2019-03-21T19:04:50.702Z,99.90
2019-03-21T19:07:37.517Z,99.90
2019-03-21T19:10:06.325Z,99.90
2019-03-21T19:12:45.938Z,99.90
2019-03-21T19:15:35.179Z,99.90
2019-03-21T19:18:02.985Z,99.90
2019-03-21T19:20:30.518Z,99.90
2019-03-21T19:23:17.209Z,99.90
2019-03-21T19:25:44.966Z,99.90
2019-03-21T19:28:13.710Z,99.90
2019-03-21T19:31:00.762Z,99.90
2019-03-21T19:33:47.740Z,99.90
2019-03-21T19:36:34.640Z,99.90
2019-03-21T19:39:21.435Z,99.90
2019-03-21T19:41:48.848Z,99.90
2019-03-21T19:44:35.624Z,99.90
2019-03-21T19:47:03.162Z,99.90
2019-03-21T19:49:50.017Z,99.90
2019-03-21T19:52:36.835Z,99.90
2019-03-21T19:55:04.817Z,99.90
2019-03-21T19:57:51.584Z,99.90
2019-03-21T20:00:38.423Z,99.90
2019-03-21T20:03:25.722Z,99.90
2019-03-21T20:06:00.092Z,99.90
2019-03-21T20:08:42.017Z,99.90
2019-03-21T20:11:21.360Z,99.90
2019-03-21T20:14:03.824Z,99.90
2019-03-21T20:16:31.024Z,99.90
2019-03-21T20:19:00.343Z,99.90
2019-03-21T20:21:50.333Z,99.90
2019-03-21T20:24:37.294Z,99.90
2019-03-21T20:27:24.358Z,99.90
2019-03-21T20:33:26.911Z,99.90
2019-03-21T20:36:14.063Z,99.90
2019-03-21T20:39:00.882Z,99.90
2019-03-21T20:41:48.113Z,99.90
2019-03-21T20:44:34.898Z,99.90
2019-03-21T20:47:02.232Z,99.90
2019-03-21T20:49:49.175Z,99.90
2019-03-21T20:52:36.007Z,99.90
2019-03-21T20:55:23.167Z,99.90
2019-03-21T20:57:50.797Z,99.90
2019-03-21T21:00:37.859Z,99.90
2019-03-21T21:03:24.725Z,99.90
2019-03-21T21:06:11.533Z,99.90
2019-03-21T21:08:58.589Z,99.90
2019-03-21T21:11:38.239Z,99.90
2019-03-21T21:14:17.437Z,99.90
2019-03-21T21:16:57.515Z,99.90
2019-03-21T21:19:24.856Z,99.90
2019-03-21T21:22:12.053Z,99.90
2019-03-21T21:24:58.962Z,99.90
2019-03-21T21:27:49.754Z,99.90
2019-03-21T21:30:38.200Z,99.90
2019-03-21T21:33:25.084Z,99.90
2019-03-21T21:35:52.696Z,99.90
2019-03-21T21:38:40.145Z,99.90
2019-03-21T21:41:27.330Z,99.90
2019-03-21T21:44:14.440Z,99.90
2019-03-21T21:47:01.789Z,99.90
2019-03-21T21:49:48.587Z,99.90
2019-03-21T21:52:53.158Z,99.90
2019-03-21T21:55:40.788Z,99.90
2019-03-21T21:58:27.712Z,99.90
2019-03-21T22:01:14.779Z,99.90
2019-03-21T22:04:05.023Z,99.90
2019-03-21T22:06:50.188Z,99.90
2019-03-21T22:09:36.970Z,99.90
2019-03-21T22:12:04.511Z,99.90
2019-03-21T22:14:51.266Z,99.90
2019-03-21T22:17:38.156Z,99.90
2019-03-21T22:20:24.931Z,99.90
2019-03-21T22:22:52.580Z,99.90
2019-03-21T22:25:39.499Z,99.90
2019-03-21T22:28:26.219Z,99.90
2019-03-21T22:31:13.157Z,99.90
2019-03-21T22:33:59.961Z,99.90
2019-03-21T22:36:49.495Z,99.90
2019-03-21T22:39:35.929Z,99.90
2019-03-21T22:42:23.136Z,99.90
2019-03-21T22:44:50.722Z,99.90
2019-03-21T22:47:38.010Z,99.90
2019-03-21T22:50:26.942Z,99.90
2019-03-21T22:53:13.781Z,99.90
2019-03-21T22:56:00.999Z,99.90
2019-03-21T22:58:47.672Z,99.90
2019-03-21T23:01:34.687Z,99.90
2019-03-21T23:04:21.759Z,99.90
2019-03-21T23:12:35.022Z,99.90
2019-03-21T23:18:30.833Z,99.90
2019-03-21T23:21:17.509Z,99.90
2019-03-21T23:24:04.777Z,99.90
2019-03-21T23:26:53.124Z,99.90
2019-03-21T23:29:40.541Z,99.90
2019-03-21T23:32:27.752Z,99.90
2019-03-21T23:35:14.733Z,99.90
2019-03-21T23:38:01.528Z,99.90
2019-03-21T23:40:48.349Z,99.90
2019-03-21T23:43:35.467Z,99.90
2019-03-21T23:46:22.298Z,99.90
2019-03-21T23:49:09.077Z,99.90
2019-03-21T23:51:55.888Z,99.90
2019-03-21T23:54:43.045Z,99.90
2019-03-21T23:57:29.933Z,99.90
